createdAt,value
2018-09-18T00:00:39.852Z,1001.60
2018-09-18T00:01:39.848Z,1001.57
2018-09-18T00:02:39.851Z,1001.56
2018-09-18T00:03:39.846Z,1001.57
2018-09-18T00:04:39.845Z,1001.58
2018-09-18T00:05:39.842Z,1001.58
2018-09-18T00:06:39.842Z,1001.56
2018-09-18T00:07:39.842Z,1001.55
2018-09-18T00:08:39.838Z,1001.57
2018-09-18T00:09:39.837Z,1001.58
2018-09-18T00:10:39.835Z,1001.52
2018-09-18T00:11:39.834Z,1001.51
2018-09-18T00:12:39.832Z,1001.49
2018-09-18T00:13:39.834Z,1001.49
2018-09-18T00:14:39.829Z,1001.48
2018-09-18T00:15:39.828Z,1001.48
2018-09-18T00:16:39.826Z,1001.44
2018-09-18T00:17:39.826Z,1001.43
2018-09-18T00:18:39.826Z,1001.46
2018-09-18T00:19:39.823Z,1001.43
2018-09-18T00:20:39.846Z,1001.43
2018-09-18T00:21:39.820Z,1001.39
2018-09-18T00:22:39.818Z,1001.40
2018-09-18T00:23:39.818Z,1001.38
2018-09-18T00:24:39.815Z,1001.38
2018-09-18T00:25:39.817Z,1001.38
2018-09-18T00:26:39.814Z,1001.41
2018-09-18T00:27:39.811Z,1001.39
2018-09-18T00:28:39.808Z,1001.37
2018-09-18T00:29:39.807Z,1001.38
2018-09-18T00:30:39.807Z,1001.36
2018-09-18T00:31:39.807Z,1001.35
2018-09-18T00:32:39.802Z,1001.37
2018-09-18T00:33:39.804Z,1001.39
2018-09-18T00:34:39.805Z,1001.34
2018-09-18T00:35:39.798Z,1001.39
2018-09-18T00:36:39.796Z,1001.38
2018-09-18T00:37:39.795Z,1001.37
2018-09-18T00:38:39.793Z,1001.36
2018-09-18T00:39:39.794Z,1001.31
2018-09-18T00:40:39.789Z,1001.32
2018-09-18T00:41:39.814Z,1001.29
2018-09-18T00:42:39.787Z,1001.25
2018-09-18T00:43:39.786Z,1001.27
2018-09-18T00:44:39.793Z,1001.29
2018-09-18T00:45:39.782Z,1001.26
2018-09-18T00:46:39.781Z,1001.26
2018-09-18T00:47:39.779Z,1001.24
2018-09-18T00:48:39.777Z,1001.26
2018-09-18T00:49:39.776Z,1001.24
2018-09-18T00:50:39.777Z,1001.24
2018-09-18T00:51:39.774Z,1001.24
2018-09-18T00:52:39.773Z,1001.19
2018-09-18T00:53:39.768Z,1001.26
2018-09-18T00:54:39.768Z,1001.23
2018-09-18T00:55:39.767Z,1001.23
2018-09-18T00:56:39.767Z,1001.25
2018-09-18T00:57:39.769Z,1001.22
2018-09-18T00:58:39.762Z,1001.21
2018-09-18T00:59:39.759Z,1001.21
2018-09-18T01:00:39.758Z,1001.18
2018-09-18T01:01:39.754Z,1001.19
2018-09-18T01:02:39.754Z,1001.15
2018-09-18T01:03:39.755Z,1001.16
2018-09-18T01:04:39.749Z,1001.19
2018-09-18T01:05:39.751Z,1001.14
2018-09-18T01:06:39.746Z,1001.13
2018-09-18T01:07:39.744Z,1001.10
2018-09-18T01:08:39.742Z,1001.17
2018-09-18T01:09:39.742Z,1001.12
2018-09-18T01:10:39.740Z,1001.12
2018-09-18T01:11:39.739Z,1001.15
2018-09-18T01:12:40.221Z,1001.13
2018-09-18T01:13:39.731Z,1001.10
2018-09-18T01:14:39.736Z,1001.13
2018-09-18T01:15:39.731Z,1001.12
2018-09-18T01:16:39.727Z,1001.10
2018-09-18T01:17:39.725Z,1001.13
2018-09-18T01:18:39.724Z,1001.13
2018-09-18T01:19:39.720Z,1001.12
2018-09-18T01:20:39.717Z,1001.10
2018-09-18T01:21:39.725Z,1001.11
2018-09-18T01:22:39.714Z,1001.12
2018-09-18T01:23:39.711Z,1001.12
2018-09-18T01:24:39.710Z,1001.10
2018-09-18T01:25:39.708Z,1001.14
2018-09-18T01:26:39.710Z,1001.11
2018-09-18T01:27:39.705Z,1001.09
2018-09-18T01:28:39.706Z,1001.07
2018-09-18T01:29:39.699Z,1001.09
2018-09-18T01:30:39.697Z,1001.10
2018-09-18T01:31:39.696Z,1001.10
2018-09-18T01:32:39.692Z,1001.11
2018-09-18T01:33:39.691Z,1001.10
2018-09-18T01:34:39.692Z,1001.10
2018-09-18T01:35:39.688Z,1001.09
2018-09-18T01:36:39.685Z,1001.09
2018-09-18T01:37:39.682Z,1001.08
2018-09-18T01:38:39.680Z,1001.09
2018-09-18T01:39:39.681Z,1001.05
2018-09-18T01:40:39.677Z,1001.10
2018-09-18T01:41:39.675Z,1001.10
2018-09-18T01:42:39.673Z,1001.13
2018-09-18T01:43:40.644Z,1001.12
2018-09-18T01:44:39.677Z,1001.12
2018-09-18T01:45:39.669Z,1001.09
2018-09-18T01:46:39.664Z,1001.12
2018-09-18T01:47:39.662Z,1001.06
2018-09-18T01:48:39.659Z,1001.11
2018-09-18T01:49:39.656Z,1001.08
2018-09-18T01:50:39.653Z,1001.07
2018-09-18T01:51:39.653Z,1001.10
2018-09-18T01:52:39.649Z,1001.10
2018-09-18T01:53:39.650Z,1001.08
2018-09-18T01:54:39.649Z,1001.05
2018-09-18T01:55:39.644Z,1001.06
2018-09-18T01:56:39.641Z,1001.06
2018-09-18T01:57:39.643Z,1001.03
2018-09-18T01:58:39.640Z,1001.07
2018-09-18T01:59:39.637Z,1001.08
2018-09-18T02:00:39.633Z,1001.09
2018-09-18T02:01:39.631Z,1001.04
2018-09-18T02:02:39.627Z,1001.10
2018-09-18T02:03:39.626Z,1001.08
2018-09-18T02:04:39.622Z,1001.11
2018-09-18T02:05:39.626Z,1001.09
2018-09-18T02:06:39.622Z,1001.13
2018-09-18T02:07:39.618Z,1001.09
2018-09-18T02:08:39.615Z,1001.09
2018-09-18T02:09:39.612Z,1001.09
2018-09-18T02:10:39.649Z,1001.10
2018-09-18T02:11:39.609Z,1001.12
2018-09-18T02:12:39.605Z,1001.05
2018-09-18T02:13:39.603Z,1001.10
2018-09-18T02:14:39.602Z,1001.06
2018-09-18T02:15:39.601Z,1001.06
2018-09-18T02:16:39.597Z,1001.07
2018-09-18T02:17:39.597Z,1001.04
2018-09-18T02:18:39.591Z,1001.02
2018-09-18T02:19:39.589Z,1001.03
2018-09-18T02:20:39.588Z,1001.05
2018-09-18T02:21:39.587Z,1001.07
2018-09-18T02:22:39.583Z,1001.02
2018-09-18T02:23:39.583Z,1001.08
2018-09-18T02:24:39.579Z,1001.02
2018-09-18T02:25:39.576Z,1001.08
2018-09-18T02:26:39.573Z,1001.08
2018-09-18T02:27:39.572Z,1001.02
2018-09-18T02:28:39.570Z,1001.02
2018-09-18T02:29:39.567Z,1001.02
2018-09-18T02:30:39.565Z,1001.00
2018-09-18T02:31:39.564Z,1001.02
2018-09-18T02:32:39.561Z,1001.02
2018-09-18T02:33:39.558Z,1001.03
2018-09-18T02:34:39.556Z,1001.03
2018-09-18T02:35:39.555Z,1001.06
2018-09-18T02:36:39.550Z,1001.04
2018-09-18T02:37:39.550Z,1001.04
2018-09-18T02:38:39.548Z,1001.06
2018-09-18T02:39:39.546Z,1001.00
2018-09-18T02:40:39.545Z,1001.01
2018-09-18T02:41:39.540Z,1001.01
2018-09-18T02:42:39.539Z,1000.99
2018-09-18T02:43:39.538Z,1000.99
2018-09-18T02:44:39.537Z,1000.98
2018-09-18T02:45:39.533Z,1000.94
2018-09-18T02:46:39.530Z,1000.98
2018-09-18T02:47:39.528Z,1000.99
2018-09-18T02:48:39.525Z,1000.98
2018-09-18T02:49:39.527Z,1000.97
2018-09-18T02:50:39.521Z,1000.95
2018-09-18T02:51:39.523Z,1000.94
2018-09-18T02:52:39.516Z,1000.96
2018-09-18T02:53:39.515Z,1000.97
2018-09-18T02:54:39.519Z,1001.01
2018-09-18T02:55:39.515Z,1001.02
2018-09-18T02:56:39.509Z,1000.99
2018-09-18T02:57:39.506Z,1001.02
2018-09-18T02:58:39.505Z,1001.04
2018-09-18T02:59:39.503Z,1001.01
2018-09-18T03:00:39.499Z,1000.98
2018-09-18T03:01:39.499Z,1001.00
2018-09-18T03:02:39.499Z,1001.01
2018-09-18T03:03:39.504Z,1001.04
2018-09-18T03:04:39.492Z,1001.02
2018-09-18T03:05:39.499Z,1001.01
2018-09-18T03:06:39.487Z,1001.05
2018-09-18T03:07:39.485Z,1001.01
2018-09-18T03:08:39.488Z,1001.01
2018-09-18T03:09:39.484Z,1001.04
2018-09-18T03:10:39.478Z,1001.02
2018-09-18T03:11:39.477Z,1001.00
2018-09-18T03:12:39.480Z,1000.98
2018-09-18T03:13:39.472Z,1000.97
2018-09-18T03:14:39.469Z,1000.97
2018-09-18T03:15:39.755Z,1000.99
2018-09-18T03:16:39.466Z,1000.99
2018-09-18T03:17:39.464Z,1001.02
2018-09-18T03:18:39.461Z,1001.04
2018-09-18T03:19:39.459Z,1001.03
2018-09-18T03:20:39.462Z,1001.02
2018-09-18T03:21:39.455Z,1001.02
2018-09-18T03:22:39.452Z,1000.98
2018-09-18T03:23:39.450Z,1001.01
2018-09-18T03:24:39.448Z,1001.04
2018-09-18T03:25:39.446Z,1000.97
2018-09-18T03:26:39.445Z,1001.00
2018-09-18T03:27:39.442Z,1000.96
2018-09-18T03:28:39.438Z,1001.01
2018-09-18T03:29:39.436Z,1001.00
2018-09-18T03:30:39.436Z,1001.00
2018-09-18T03:31:39.435Z,1001.05
2018-09-18T03:32:39.431Z,1001.01
2018-09-18T03:33:39.427Z,1001.04
2018-09-18T03:34:39.428Z,1001.05
2018-09-18T03:35:39.487Z,1001.02
2018-09-18T03:36:39.421Z,1001.07
2018-09-18T03:37:39.420Z,1001.02
2018-09-18T03:38:39.415Z,1001.03
2018-09-18T03:39:39.413Z,1001.00
2018-09-18T03:40:39.409Z,1001.01
2018-09-18T03:41:39.412Z,1001.05
2018-09-18T03:42:39.413Z,1001.03
2018-09-18T03:43:39.408Z,1001.06
2018-09-18T03:44:39.410Z,1001.01
2018-09-18T03:45:39.398Z,1001.02
2018-09-18T03:46:40.158Z,1001.00
2018-09-18T03:47:39.394Z,1000.97
2018-09-18T03:48:39.391Z,1001.03
2018-09-18T03:49:39.394Z,1001.02
2018-09-18T03:50:39.386Z,1001.01
2018-09-18T03:51:39.385Z,1000.98
2018-09-18T03:52:39.379Z,1000.97
2018-09-18T03:53:39.379Z,1000.93
2018-09-18T03:54:39.376Z,1000.93
2018-09-18T03:55:39.376Z,1000.86
2018-09-18T03:56:39.373Z,1000.86
2018-09-18T03:57:39.368Z,1000.84
2018-09-18T03:58:39.375Z,1000.81
2018-09-18T03:59:39.362Z,1000.82
2018-09-18T04:00:39.357Z,1000.84
2018-09-18T04:01:39.363Z,1000.82
2018-09-18T04:02:39.356Z,1000.82
2018-09-18T04:03:39.378Z,1000.79
2018-09-18T04:04:39.346Z,1000.80
2018-09-18T04:05:39.344Z,1000.75
2018-09-18T04:06:39.344Z,1000.76
2018-09-18T04:07:39.378Z,1000.72
2018-09-18T04:08:39.335Z,1000.81
2018-09-18T04:09:39.330Z,1000.77
2018-09-18T04:10:39.330Z,1000.75
2018-09-18T04:11:39.325Z,1000.80
2018-09-18T04:12:39.323Z,1000.80
2018-09-18T04:13:39.324Z,1000.77
2018-09-18T04:14:39.317Z,1000.84
2018-09-18T04:15:39.314Z,1000.81
2018-09-18T04:16:39.312Z,1000.79
2018-09-18T04:17:39.308Z,1000.81
2018-09-18T04:18:39.305Z,1000.81
2018-09-18T04:19:39.303Z,1000.79
2018-09-18T04:20:39.298Z,1000.79
2018-09-18T04:21:39.295Z,1000.81
2018-09-18T04:22:39.293Z,1000.82
2018-09-18T04:23:39.293Z,1000.79
2018-09-18T04:24:39.288Z,1000.79
2018-09-18T04:25:39.283Z,1000.79
2018-09-18T04:26:39.280Z,1000.81
2018-09-18T04:27:39.280Z,1000.79
2018-09-18T04:28:39.274Z,1000.80
2018-09-18T04:29:39.271Z,1000.79
2018-09-18T04:30:39.268Z,1000.82
2018-09-18T04:31:39.266Z,1000.83
2018-09-18T04:32:39.262Z,1000.78
2018-09-18T04:33:39.264Z,1000.77
2018-09-18T04:34:39.255Z,1000.77
2018-09-18T04:35:39.253Z,1000.75
2018-09-18T04:36:39.248Z,1000.74
2018-09-18T04:37:39.246Z,1000.74
2018-09-18T04:38:39.245Z,1000.77
2018-09-18T04:39:39.241Z,1000.76
2018-09-18T04:40:39.245Z,1000.74
2018-09-18T04:41:39.235Z,1000.75
2018-09-18T04:42:39.232Z,1000.73
2018-09-18T04:43:39.231Z,1000.73
2018-09-18T04:44:39.226Z,1000.74
2018-09-18T04:45:39.222Z,1000.77
2018-09-18T04:46:39.219Z,1000.76
2018-09-18T04:47:39.216Z,1000.74
2018-09-18T04:48:39.214Z,1000.74
2018-09-18T04:49:39.211Z,1000.79
2018-09-18T04:50:39.207Z,1000.77
2018-09-18T04:51:39.209Z,1000.76
2018-09-18T04:52:39.204Z,1000.78
2018-09-18T04:53:39.201Z,1000.78
2018-09-18T04:54:39.195Z,1000.81
2018-09-18T04:55:39.194Z,1000.83
2018-09-18T04:56:39.191Z,1000.82
2018-09-18T04:57:39.188Z,1000.82
2018-09-18T04:58:39.185Z,1000.84
2018-09-18T04:59:39.183Z,1000.84
2018-09-18T05:00:39.178Z,1000.85
2018-09-18T05:01:39.178Z,1000.85
2018-09-18T05:02:39.172Z,1000.86
2018-09-18T05:03:39.170Z,1000.82
2018-09-18T05:04:39.175Z,1000.88
2018-09-18T05:05:39.164Z,1000.90
2018-09-18T05:06:39.160Z,1000.88
2018-09-18T05:07:39.159Z,1000.90
2018-09-18T05:08:39.154Z,1000.91
2018-09-18T05:09:39.152Z,1000.91
2018-09-18T05:10:39.149Z,1000.89
2018-09-18T05:11:39.147Z,1000.89
2018-09-18T05:12:39.142Z,1000.92
2018-09-18T05:13:39.357Z,1000.94
2018-09-18T05:14:40.045Z,1000.91
2018-09-18T05:15:39.273Z,1000.86
2018-09-18T05:16:40.022Z,1000.88
2018-09-18T05:17:39.225Z,1000.89
2018-09-18T05:18:39.977Z,1000.89
2018-09-18T05:19:39.123Z,1000.90
2018-09-18T05:20:39.121Z,1000.86
2018-09-18T05:21:39.119Z,1000.91
2018-09-18T05:22:39.118Z,1000.90
2018-09-18T05:23:39.114Z,1000.91
2018-09-18T05:24:39.113Z,1000.93
2018-09-18T05:25:39.135Z,1000.94
2018-09-18T05:26:39.103Z,1000.92
2018-09-18T05:27:39.097Z,1000.94
2018-09-18T05:28:39.095Z,1000.96
2018-09-18T05:29:39.090Z,1000.96
2018-09-18T05:30:39.089Z,1000.94
2018-09-18T05:31:39.088Z,1000.89
2018-09-18T05:32:39.082Z,1000.91
2018-09-18T05:33:39.131Z,1000.89
2018-09-18T05:34:39.076Z,1000.90
2018-09-18T05:35:39.075Z,1000.90
2018-09-18T05:36:39.083Z,1000.90
2018-09-18T05:37:39.065Z,1000.94
2018-09-18T05:38:39.062Z,1000.87
2018-09-18T05:39:39.063Z,1000.93
2018-09-18T05:40:39.056Z,1000.93
2018-09-18T05:41:39.054Z,1000.97
2018-09-18T05:42:39.050Z,1000.96
2018-09-18T05:43:39.047Z,1000.94
2018-09-18T05:44:39.043Z,1000.95
2018-09-18T05:45:39.045Z,1000.97
2018-09-18T05:46:39.037Z,1001.00
2018-09-18T05:47:39.035Z,1000.99
2018-09-18T05:48:39.031Z,1000.97
2018-09-18T05:49:39.672Z,1000.99
2018-09-18T05:50:39.024Z,1001.00
2018-09-18T05:51:39.021Z,1000.99
2018-09-18T05:52:39.035Z,1000.98
2018-09-18T05:53:39.016Z,1000.97
2018-09-18T05:54:39.012Z,1000.96
2018-09-18T05:55:39.009Z,1000.94
2018-09-18T05:56:39.005Z,1000.97
2018-09-18T05:57:39.002Z,1000.93
2018-09-18T05:58:38.998Z,1000.95
2018-09-18T05:59:38.995Z,1000.97
2018-09-18T06:00:38.997Z,1000.92
2018-09-18T06:01:38.990Z,1000.93
2018-09-18T06:02:38.987Z,1000.90
2018-09-18T06:03:38.983Z,1000.92
2018-09-18T06:04:38.982Z,1000.93
2018-09-18T06:05:38.978Z,1000.94
2018-09-18T06:06:38.975Z,1000.89
2018-09-18T06:07:38.971Z,1000.91
2018-09-18T06:08:38.967Z,1000.92
2018-09-18T06:09:38.967Z,1000.93
2018-09-18T06:10:38.967Z,1000.95
2018-09-18T06:11:38.962Z,1000.93
2018-09-18T06:12:39.019Z,1000.90
2018-09-18T06:13:38.966Z,1000.92
2018-09-18T06:14:38.956Z,1000.93
2018-09-18T06:15:38.947Z,1000.90
2018-09-18T06:16:38.942Z,1000.92
2018-09-18T06:17:38.941Z,1000.91
2018-09-18T06:18:38.953Z,1000.89
2018-09-18T06:19:38.933Z,1000.90
2018-09-18T06:20:38.930Z,1000.92
2018-09-18T06:21:38.930Z,1000.90
2018-09-18T06:22:38.925Z,1000.89
2018-09-18T06:23:38.923Z,1000.84
2018-09-18T06:24:38.939Z,1000.86
2018-09-18T06:25:38.916Z,1000.89
2018-09-18T06:26:38.915Z,1000.90
2018-09-18T06:27:38.916Z,1000.89
2018-09-18T06:28:38.907Z,1000.86
2018-09-18T06:29:38.904Z,1000.88
2018-09-18T06:30:38.902Z,1000.88
2018-09-18T06:31:38.904Z,1000.89
2018-09-18T06:32:38.934Z,1000.88
2018-09-18T06:33:39.018Z,1000.87
2018-09-18T06:34:38.893Z,1000.92
2018-09-18T06:35:38.890Z,1000.86
2018-09-18T06:36:38.888Z,1000.89
2018-09-18T06:37:38.896Z,1000.88
2018-09-18T06:38:38.880Z,1000.88
2018-09-18T06:39:38.878Z,1000.88
2018-09-18T06:40:38.872Z,1000.90
2018-09-18T06:41:38.870Z,1000.89
2018-09-18T06:42:38.870Z,1000.84
2018-09-18T06:43:38.872Z,1000.86
2018-09-18T06:44:38.862Z,1000.83
2018-09-18T06:45:38.860Z,1000.86
2018-09-18T06:46:38.855Z,1000.85
2018-09-18T06:47:38.872Z,1000.81
2018-09-18T06:48:38.874Z,1000.84
2018-09-18T06:49:38.848Z,1000.86
2018-09-18T06:50:38.853Z,1000.85
2018-09-18T06:51:38.851Z,1000.83
2018-09-18T06:52:38.841Z,1000.84
2018-09-18T06:53:38.838Z,1000.82
2018-09-18T06:54:38.873Z,1000.84
2018-09-18T06:55:38.838Z,1000.79
2018-09-18T06:56:38.831Z,1000.81
2018-09-18T06:57:38.829Z,1000.82
2018-09-18T06:58:38.833Z,1000.79
2018-09-18T06:59:38.824Z,1000.80
2018-09-18T07:00:38.822Z,1000.80
2018-09-18T07:01:38.824Z,1000.82
2018-09-18T07:02:38.817Z,1000.79
2018-09-18T07:03:38.815Z,1000.74
2018-09-18T07:04:38.813Z,1000.72
2018-09-18T07:05:38.864Z,1000.75
2018-09-18T07:06:38.810Z,1000.76
2018-09-18T07:07:38.838Z,1000.76
2018-09-18T07:08:38.804Z,1000.73
2018-09-18T07:09:38.803Z,1000.77
2018-09-18T07:10:38.820Z,1000.78
2018-09-18T07:11:38.821Z,1000.77
2018-09-18T07:12:38.943Z,1000.77
2018-09-18T07:13:38.814Z,1000.75
2018-09-18T07:14:38.914Z,1000.73
2018-09-18T07:15:38.818Z,1000.72
2018-09-18T07:16:38.815Z,1000.74
2018-09-18T07:17:38.907Z,1000.72
2018-09-18T07:18:38.864Z,1000.72
2018-09-18T07:19:38.838Z,1000.69
2018-09-18T07:20:38.801Z,1000.73
2018-09-18T07:21:38.817Z,1000.70
2018-09-18T07:22:38.788Z,1000.71
2018-09-18T07:23:38.825Z,1000.73
2018-09-18T07:24:38.847Z,1000.72
2018-09-18T07:25:38.787Z,1000.68
2018-09-18T07:26:38.814Z,1000.71
2018-09-18T07:27:38.819Z,1000.69
2018-09-18T07:28:38.816Z,1000.69
2018-09-18T07:29:38.783Z,1000.69
2018-09-18T07:30:38.811Z,1000.73
2018-09-18T07:31:38.849Z,1000.70
2018-09-18T07:32:38.825Z,1000.70
2018-09-18T07:33:38.794Z,1000.71
2018-09-18T07:34:38.794Z,1000.67
2018-09-18T07:35:38.791Z,1000.66
2018-09-18T07:36:38.783Z,1000.64
2018-09-18T07:37:38.816Z,1000.65
2018-09-18T07:38:38.833Z,1000.68
2018-09-18T07:39:38.772Z,1000.70
2018-09-18T07:40:38.788Z,1000.68
2018-09-18T07:41:38.772Z,1000.71
2018-09-18T07:42:38.766Z,1000.71
2018-09-18T07:43:38.764Z,1000.71
2018-09-18T07:44:38.758Z,1000.69
2018-09-18T07:45:38.843Z,1000.69
2018-09-18T07:46:43.518Z,1000.67
2018-09-18T07:47:38.777Z,1000.66
2018-09-18T07:48:38.844Z,1000.70
2018-09-18T07:49:38.798Z,1000.65
2018-09-18T07:50:38.851Z,1000.70
2018-09-18T07:51:38.813Z,1000.66
2018-09-18T07:52:39.082Z,1000.68
2018-09-18T07:53:38.817Z,1000.67
2018-09-18T07:54:38.783Z,1000.63
2018-09-18T07:55:39.525Z,1000.62
2018-09-18T07:56:39.519Z,1000.62
2018-09-18T07:57:38.806Z,1000.62
2018-09-18T07:58:38.858Z,1000.62
2018-09-18T07:59:38.765Z,1000.60
2018-09-18T08:00:38.734Z,1000.61
2018-09-18T08:01:38.737Z,1000.61
2018-09-18T08:02:38.808Z,1000.61
2018-09-18T08:03:38.720Z,1000.61
2018-09-18T08:04:38.766Z,1000.58
2018-09-18T08:05:38.744Z,1000.55
2018-09-18T08:06:38.747Z,1000.58
2018-09-18T08:07:38.744Z,1000.55
2018-09-18T08:08:38.762Z,1000.59
2018-09-18T08:09:38.760Z,1000.57
2018-09-18T08:10:38.754Z,1000.58
2018-09-18T08:11:38.735Z,1000.54
2018-09-18T08:12:38.750Z,1000.58
2018-09-18T08:13:38.785Z,1000.59
2018-09-18T08:14:38.752Z,1000.55
2018-09-18T08:15:38.754Z,1000.55
2018-09-18T08:16:38.759Z,1000.51
2018-09-18T08:17:38.742Z,1000.52
2018-09-18T08:18:38.847Z,1000.52
2018-09-18T08:19:38.955Z,1000.50
2018-09-18T08:20:38.841Z,1000.51
2018-09-18T08:21:38.751Z,1000.50
2018-09-18T08:22:38.730Z,1000.47
2018-09-18T08:23:39.331Z,1000.52
2018-09-18T08:24:38.718Z,1000.50
2018-09-18T08:25:38.775Z,1000.50
2018-09-18T08:26:38.718Z,1000.47
2018-09-18T08:27:38.726Z,1000.51
2018-09-18T08:28:38.798Z,1000.48
2018-09-18T08:29:38.728Z,1000.46
2018-09-18T08:30:38.842Z,1000.46
2018-09-18T08:31:38.717Z,1000.46
2018-09-18T08:32:38.859Z,1000.45
2018-09-18T08:33:38.716Z,1000.43
2018-09-18T08:34:38.726Z,1000.49
2018-09-18T08:35:38.761Z,1000.49
2018-09-18T08:36:38.749Z,1000.45
2018-09-18T08:37:38.729Z,1000.44
2018-09-18T08:38:38.727Z,1000.45
2018-09-18T08:39:38.722Z,1000.39
2018-09-18T08:40:39.624Z,1000.38
2018-09-18T08:41:38.743Z,1000.40
2018-09-18T08:42:38.725Z,1000.40
2018-09-18T08:43:38.728Z,1000.39
2018-09-18T08:44:38.731Z,1000.38
2018-09-18T08:45:38.787Z,1000.42
2018-09-18T08:46:38.728Z,1000.41
2018-09-18T08:47:38.733Z,1000.44
2018-09-18T08:48:38.783Z,1000.44
2018-09-18T08:49:38.781Z,1000.41
2018-09-18T08:50:38.808Z,1000.38
2018-09-18T08:51:38.910Z,1000.36
2018-09-18T08:52:38.748Z,1000.35
2018-09-18T08:53:38.747Z,1000.37
2018-09-18T08:54:39.585Z,1000.37
2018-09-18T08:55:38.743Z,1000.31
2018-09-18T08:56:38.737Z,1000.29
2018-09-18T08:57:38.735Z,1000.30
2018-09-18T08:58:38.745Z,1000.28
2018-09-18T08:59:38.764Z,1000.30
2018-09-18T09:00:38.750Z,1000.28
2018-09-18T09:01:38.768Z,1000.27
2018-09-18T09:02:38.723Z,1000.25
2018-09-18T09:03:38.756Z,1000.23
2018-09-18T09:04:38.800Z,1000.20
2018-09-18T09:05:38.741Z,1000.20
2018-09-18T09:06:38.814Z,1000.18
2018-09-18T09:07:38.932Z,1000.16
2018-09-18T09:08:38.903Z,1000.16
2018-09-18T09:09:38.912Z,1000.15
2018-09-18T09:10:38.785Z,1000.18
2018-09-18T09:11:38.779Z,1000.13
2018-09-18T09:12:38.747Z,1000.15
2018-09-18T09:13:38.755Z,1000.12
2018-09-18T09:14:38.785Z,1000.12
2018-09-18T09:15:38.773Z,1000.11
2018-09-18T09:16:38.752Z,1000.10
2018-09-18T09:17:38.761Z,1000.12
2018-09-18T09:18:38.864Z,1000.10
2018-09-18T09:19:38.755Z,1000.10
2018-09-18T09:20:38.780Z,1000.13
2018-09-18T09:21:38.763Z,1000.11
2018-09-18T09:22:38.824Z,1000.10
2018-09-18T09:23:38.825Z,1000.12
2018-09-18T09:24:38.752Z,1000.09
2018-09-18T09:25:38.769Z,1000.10
2018-09-18T09:26:38.802Z,1000.09
2018-09-18T09:27:38.881Z,1000.04
2018-09-18T09:28:38.784Z,1000.06
2018-09-18T09:29:38.819Z,1000.03
2018-09-18T09:30:38.769Z,1000.08
2018-09-18T09:31:38.765Z,1000.03
2018-09-18T09:32:38.743Z,1000.04
2018-09-18T09:33:38.769Z,1000.01
2018-09-18T09:34:38.749Z,999.98
2018-09-18T09:35:38.751Z,999.98
2018-09-18T09:36:38.757Z,999.92
2018-09-18T09:37:38.772Z,999.97
2018-09-18T09:38:38.772Z,999.97
2018-09-18T09:39:38.759Z,999.95
2018-09-18T09:40:38.757Z,999.95
2018-09-18T09:41:38.759Z,999.92
2018-09-18T09:42:38.761Z,999.92
2018-09-18T09:43:38.768Z,999.92
2018-09-18T09:44:38.761Z,999.92
2018-09-18T09:45:38.763Z,999.92
2018-09-18T09:46:38.764Z,999.84
2018-09-18T09:47:38.767Z,999.82
2018-09-18T09:48:38.768Z,999.80
2018-09-18T09:49:38.770Z,999.83
2018-09-18T09:50:38.772Z,999.79
2018-09-18T09:51:38.792Z,999.77
2018-09-18T09:52:38.788Z,999.76
2018-09-18T09:53:38.782Z,999.75
2018-09-18T09:54:38.796Z,999.80
2018-09-18T09:55:38.782Z,999.79
2018-09-18T09:56:38.794Z,999.78
2018-09-18T09:57:38.789Z,999.78
2018-09-18T09:58:38.790Z,999.75
2018-09-18T09:59:38.789Z,999.70
2018-09-18T10:00:38.790Z,999.72
2018-09-18T10:01:38.792Z,999.70
2018-09-18T10:02:38.802Z,999.72
2018-09-18T10:03:38.798Z,999.66
2018-09-18T10:04:38.810Z,999.65
2018-09-18T10:05:38.804Z,999.63
2018-09-18T10:06:38.805Z,999.64
2018-09-18T10:07:38.805Z,999.64
2018-09-18T10:08:38.807Z,999.58
2018-09-18T10:09:38.811Z,999.61
2018-09-18T10:10:38.931Z,999.58
2018-09-18T10:11:38.817Z,999.60
2018-09-18T10:12:38.821Z,999.57
2018-09-18T10:13:38.895Z,999.59
2018-09-18T10:14:38.836Z,999.59
2018-09-18T10:15:38.879Z,999.60
2018-09-18T10:16:38.845Z,999.57
2018-09-18T10:17:38.863Z,999.58
2018-09-18T10:18:38.832Z,999.60
2018-09-18T10:19:38.835Z,999.54
2018-09-18T10:20:38.835Z,999.53
2018-09-18T10:21:38.838Z,999.51
2018-09-18T10:22:38.841Z,999.56
2018-09-18T10:23:38.845Z,999.48
2018-09-18T10:24:38.853Z,999.48
2018-09-18T10:25:38.877Z,999.45
2018-09-18T10:26:38.905Z,999.45
2018-09-18T10:27:38.884Z,999.43
2018-09-18T10:28:38.858Z,999.46
2018-09-18T10:29:38.871Z,999.38
2018-09-18T10:30:38.867Z,999.42
2018-09-18T10:31:38.871Z,999.39
2018-09-18T10:32:38.896Z,999.37
2018-09-18T10:33:38.895Z,999.36
2018-09-18T10:34:38.873Z,999.33
2018-09-18T10:35:38.899Z,999.35
2018-09-18T10:36:38.892Z,999.31
2018-09-18T10:37:38.908Z,999.37
2018-09-18T10:38:38.907Z,999.32
2018-09-18T10:39:38.891Z,999.35
2018-09-18T10:40:38.891Z,999.36
2018-09-18T10:41:38.989Z,999.30
2018-09-18T10:42:38.914Z,999.32
2018-09-18T10:43:38.901Z,999.27
2018-09-18T10:44:38.919Z,999.29
2018-09-18T10:45:38.934Z,999.23
2018-09-18T10:46:38.935Z,999.23
2018-09-18T10:47:38.918Z,999.16
2018-09-18T10:48:39.206Z,999.17
2018-09-18T10:49:38.921Z,999.17
2018-09-18T10:50:38.920Z,999.18
2018-09-18T10:51:38.925Z,999.16
2018-09-18T10:52:38.941Z,999.15
2018-09-18T10:53:38.929Z,999.14
2018-09-18T10:54:38.933Z,999.11
2018-09-18T10:55:38.938Z,999.10
2018-09-18T10:56:38.944Z,999.12
2018-09-18T10:57:39.097Z,999.11
2018-09-18T10:58:38.949Z,999.17
2018-09-18T10:59:38.954Z,999.14
2018-09-18T11:00:38.953Z,999.10
2018-09-18T11:01:38.988Z,999.06
2018-09-18T11:02:38.963Z,999.07
2018-09-18T11:03:39.562Z,999.07
2018-09-18T11:04:38.969Z,999.05
2018-09-18T11:05:38.981Z,999.08
2018-09-18T11:06:39.557Z,999.07
2018-09-18T11:07:39.027Z,999.06
2018-09-18T11:08:38.980Z,999.06
2018-09-18T11:09:39.032Z,999.00
2018-09-18T11:10:38.998Z,999.00
2018-09-18T11:11:38.992Z,998.99
2018-09-18T11:12:39.003Z,999.00
2018-09-18T11:13:39.005Z,998.99
2018-09-18T11:14:39.037Z,999.02
2018-09-18T11:15:39.141Z,998.98
2018-09-18T11:16:39.007Z,998.99
2018-09-18T11:17:39.013Z,998.96
2018-09-18T11:18:39.104Z,998.91
2018-09-18T11:19:39.098Z,998.93
2018-09-18T11:20:39.064Z,998.90
2018-09-18T11:21:39.105Z,998.89
2018-09-18T11:22:39.062Z,998.89
2018-09-18T11:23:39.061Z,998.89
2018-09-18T11:24:39.568Z,998.88
2018-09-18T11:25:39.149Z,998.89
2018-09-18T11:26:39.123Z,998.87
2018-09-18T11:27:39.082Z,998.87
2018-09-18T11:28:39.463Z,998.92
2018-09-18T11:29:40.599Z,998.85
2018-09-18T11:30:39.121Z,998.85
2018-09-18T11:31:39.130Z,998.83
2018-09-18T11:32:40.128Z,998.82
2018-09-18T11:33:39.079Z,998.79
2018-09-18T11:34:39.129Z,998.79
2018-09-18T11:35:39.087Z,998.82
2018-09-18T11:36:39.111Z,998.76
2018-09-18T11:37:39.130Z,998.81
2018-09-18T11:38:39.116Z,998.80
2018-09-18T11:39:39.092Z,998.79
2018-09-18T11:40:39.096Z,998.75
2018-09-18T11:41:39.099Z,998.78
2018-09-18T11:42:39.103Z,998.81
2018-09-18T11:43:39.195Z,998.78
2018-09-18T11:44:39.154Z,998.75
2018-09-18T11:45:39.230Z,998.74
2018-09-18T11:46:39.162Z,998.73
2018-09-18T11:47:39.146Z,998.79
2018-09-18T11:48:40.115Z,998.79
2018-09-18T11:49:39.139Z,998.79
2018-09-18T11:50:39.134Z,998.79
2018-09-18T11:51:39.139Z,998.82
2018-09-18T11:52:39.146Z,998.78
2018-09-18T11:53:39.146Z,998.76
2018-09-18T11:54:39.206Z,998.79
2018-09-18T11:55:39.229Z,998.77
2018-09-18T11:56:39.164Z,998.78
2018-09-18T11:57:39.196Z,998.73
2018-09-18T11:58:39.192Z,998.73
2018-09-18T11:59:39.803Z,998.71
2018-09-18T12:00:39.195Z,998.73
2018-09-18T12:01:39.184Z,998.72
2018-09-18T12:02:39.208Z,998.74
2018-09-18T12:03:39.235Z,998.69
2018-09-18T12:04:39.259Z,998.66
2018-09-18T12:05:39.292Z,998.69
2018-09-18T12:06:39.411Z,998.65
2018-09-18T12:07:39.231Z,998.70
2018-09-18T12:08:39.290Z,998.69
2018-09-18T12:09:39.215Z,998.73
2018-09-18T12:10:39.220Z,998.69